Portada
METAR-TAF:

METAR-TAF

Aeroports :

John H. Batten Airport

Racine, Wisconsin, Estats Units d'Amèrica

latitud: 42-45-31N, longitud: 087-49-04W, altitud: 205 m

Observació

L'informe es va fer fa 10 minuts, a les 17:14 UTC
Vent 17 kt del Nord/Nord-Est amb ràfegues de 25 kt
Temperatura 7°C
Humitat 93%
Pressió 1024 hPa
Visibilitat: 16.1 km
Cel ennuvolat a una alçada de 700 ft
Cel cobert a una alçada de 9500 ft
pluja

METAR: KRAC 201714Z AUTO 02017G25KT 10SM -RA BKN007 OVC095 07/06 A3025 RMK AO2 P0001 T00720061

Hora: 12:24 (17:24 UTC)


TAF: manca

Observacions i pronòstics meteorològics de més de 4000 aeroports (METAR i TAF).

Les estacions disponibles són els punts grocs i vermells al mapa.

Posi el ratolí al punt desitjat per veure el nom de l'estació.

Feu clic per veure les observacions i els pronòstics meteorològics.

Per canviar el mapa: feu clic els botons verds amb una creu de color negre per apropar; al botó verd amb un guió per allunyar la imatge; o en les fletxes verdes per a mapes adjacents.


METAR-TAF: